Flight Track Log - Related Links

Times and Time Zones

All times are in EDT time to prevent confusion due to time zone crossing. See the UAL33 flight status page for this flight to view local times or setup timezone preferences in your user account.

Time Position Orientation Groundspeed Altitude Reporting Facility
EDT Latitude Longitude Course Direction KTS MPH feet Rate Location/Type
Sat 04:55:55 AM 35.7750 140.3670 329° Northwest 163 188 900  Level FlightAware ADS-B
Sat 04:56:15 AM 35.7880 140.3580 331° Northwest 167 192 1,700 2,100 Climbing FlightAware ADS-B
Sat 04:56:35 AM 35.8020 140.3480 330° Northwest 180 207 2,300 1,950 Climbing FlightAware ADS-B
Sat 04:56:55 AM 35.8170 140.3370 329° Northwest 186 214 3,000 1,579 Climbing FlightAware ADS-B
Sat 04:57:13 AM 35.8310 140.3270 330° Northwest 211 243 3,300 947 Climbing FlightAware ADS-B
Sat 04:57:33 AM 35.8500 140.3140 331° Northwest 243 280 3,600 1,313 Climbing FlightAware ADS-B
Sat 04:57:45 AM 35.8610 140.3060 329° Northwest 250 288 4,000 2,000 Climbing FlightAware ADS-B
Sat 04:58:03 AM 35.8800 140.2920 329° Northwest 270 311 4,600 1,929 Climbing FlightAware ADS-B
Sat 04:58:13 AM 35.8910 140.2850 333° Northwest 273 314 4,900 2,333 Climbing FlightAware ADS-B
Sat 04:58:21 AM 35.9010 140.2830 351° North 271 312 5,300 2,400 Climbing FlightAware ADS-B
Sat 04:58:48 AM 35.9320 140.2970 20° North 262 302 6,300 2,057 Climbing FlightAware ADS-B
Sat 04:58:56 AM 35.9390 140.3060 46° Northeast 259 298 6,500 1,059 Climbing FlightAware ADS-B
Sat 04:59:05 AM 35.9430 140.3180 68° East 259 298 6,600 1,241 Climbing FlightAware ADS-B
Sat 04:59:25 AM 35.9510 140.3450 70° East 260 299 7,100 2,308 Climbing FlightAware ADS-B
Sat 04:59:44 AM 35.9580 140.3730 73° East 261 300 8,100 2,870 Climbing FlightAware ADS-B
Sat 04:59:48 AM 35.9580 140.3790 90° East 263 303 8,200 1,929 Climbing FlightAware ADS-B
Sat 05:00:12 AM 35.9480 140.4110 111° Southeast 270 311 9,000 2,318 Climbing FlightAware ADS-B
Sat 05:00:32 AM 35.9340 140.4380 123° Southeast 277 319 9,900 1,636 Climbing FlightAware ADS-B
Sat 05:01:07 AM 35.9040 140.4860 128° Southeast 318 366 10,500 1,200 Climbing FlightAware ADS-B
Sat 05:01:42 AM 35.8710 140.5380 128° Southeast 357 411 11,300 1,629 Climbing FlightAware ADS-B
Sat 05:02:17 AM 35.8310 140.5980 129° Southeast 382 440 12,400 2,057 Climbing FlightAware ADS-B
Sat 05:02:52 AM 35.7900 140.6580 130° Southeast 392 451 13,700 2,057 Climbing FlightAware ADS-B
Sat 05:03:27 AM 35.7490 140.7190 130° Southeast 410 472 14,800 1,114 Climbing FlightAware ADS-B
Sat 05:04:02 AM 35.7050 140.7850 129° Southeast 436 502 15,000 171 Climbing FlightAware ADS-B
Sat 05:04:37 AM 35.6580 140.8540 130° Southeast 444 511 15,000 815 Level FlightAware ADS-B
Sat 05:05:23 AM 35.5960 140.9460 130° Southeast 453 521 16,100 1,692 Climbing FlightAware ADS-B
Sat 05:05:55 AM 35.5520 141.0110 130° Southeast 461 531 17,200 2,063 Climbing FlightAware ADS-B
Sat 05:06:27 AM 35.5090 141.0750 130° Southeast 469 540 18,300 1,881 Climbing FlightAware ADS-B
Sat 05:07:02 AM 35.4840 141.1550 111° Southeast 482 555 19,300 1,759 Climbing FlightAware ADS-B
Sat 05:07:25 AM 35.4800 141.2270 94° East 498 573 20,000 1,472 Climbing FlightAware ADS-B
Sat 05:07:55 AM 35.4880 141.3100 83° East 514 592 20,600 1,455 Climbing FlightAware ADS-B
Sat 05:08:31 AM 35.5050 141.4150 79° East 521 600 21,600 1,690 Climbing FlightAware ADS-B
Sat 05:09:06 AM 35.5220 141.5170 78° East 527 606 22,600 1,662 Climbing FlightAware ADS-B
Sat 05:09:36 AM 35.5370 141.6030 78° East 534 615 23,400 1,457 Climbing FlightAware ADS-B
Sat 05:10:16 AM 35.5580 141.7220 78° East 542 624 24,300 1,286 Climbing FlightAware ADS-B
Sat 05:10:46 AM 35.5740 141.8160 78° East 551 634 24,900 1,292 Climbing FlightAware ADS-B
Sat 05:11:21 AM 35.5930 141.9240 78° East 559 643 25,700 1,200 Climbing FlightAware ADS-B
Sat 05:12:01 AM 35.6100 142.0220 78° East 565 650 26,400 1,291 Climbing FlightAware ADS-B
Sat 05:12:40 AM 35.6350 142.1710 78° East 572 658 27,400 1,562 Climbing FlightAware ADS-B
Sat 05:13:14 AM 35.6540 142.2820 78° East 575 662 28,300 1,714 Climbing FlightAware ADS-B
Sat 05:13:50 AM 35.6720 142.3900 78° East 570 656 29,400 1,886 Climbing FlightAware ADS-B
Sat 05:14:24 AM 35.6900 142.4980 78° East 564 649 30,500 1,739 Climbing FlightAware ADS-B
Sat 05:14:59 AM 35.7080 142.6050 78° East 562 647 31,400 1,500 Climbing FlightAware ADS-B
Sat 05:15:32 AM 35.7260 142.7150 79° East 560 644 32,200 897 Climbing FlightAware ADS-B
Sat 05:16:26 AM 35.7490 142.8630 79° East 560 644 32,700 333 Climbing FlightAware ADS-B
Sat 05:17:02 AM 35.7640 142.9580 79° East 560 644 32,700 1,412 Level FlightAware ADS-B
Sat 05:17:34 AM 35.7870 143.0960 78° East 951 1094 34,300 1,881 Climbing FlightAware ADS-B
Sat 05:18:09 AM 35.8050 143.2070 79° East 571 657 34,800 845 Climbing FlightAware ADS-B
Sat 05:18:45 AM 35.8220 143.3130 79° East 573 659 35,300 519 Climbing FlightAware ADS-B
Sat 05:19:30 AM 35.8430 143.4470 79° East 574 661 35,500 533 Climbing FlightAware ADS-B
Sat 05:20:15 AM 35.8640 143.5840 79° East 576 663 36,100 1,071 Climbing FlightAware ADS-B
Sat 05:20:54 AM 35.8860 143.7250 79° East 571 657 37,000 701 Climbing FlightAware ADS-B
Sat 05:21:32 AM 35.9010 143.8290 80° East 571 657 37,000  Level FlightAware ADS-B
Sat 05:22:09 AM 35.9230 143.9650 79° East 570 656 37,000  Level FlightAware ADS-B
Sat 05:22:48 AM 35.9380 144.0710 80° East 570 656 37,000  Level FlightAware ADS-B
Sat 05:23:24 AM 35.9520 144.1690 80° East 570 656 37,000  Level FlightAware ADS-B
Sat 05:24:01 AM 35.9670 144.2700 80° East 570 656 37,000  Level FlightAware ADS-B
Sat 05:24:37 AM 35.9810 144.3680 80° East 570 656 37,000  Level FlightAware ADS-B
Sat 05:25:13 AM 35.9950 144.4660 80° East 570 656 37,000  Level FlightAware ADS-B
Sat 05:26:01 AM 36.0130 144.5970 80° East 570 656 37,000  Level FlightAware ADS-B
Sat 05:26:26 AM 36.0230 144.6660 80° East 570 656 37,000  Level FlightAware ADS-B
Sat 05:27:02 AM 36.0370 144.7640 80° East 570 656 37,000  Level FlightAware ADS-B
Sat 05:27:38 AM 36.0510 144.8620 80° East 570 656 37,000  Level FlightAware ADS-B
Sat 05:28:14 AM 36.0650 144.9610 80° East 570 656 37,000  Level FlightAware ADS-B
Sat 05:28:50 AM 36.0790 145.0590 80° East 570 656 37,000  Level FlightAware ADS-B
Sat 05:29:26 AM 36.0930 145.1570 80° East 570 656 37,000  Level FlightAware ADS-B
Sat 05:30:02 AM 36.1070 145.2560 80° East 570 656 37,000  Level FlightAware ADS-B
Sat 05:30:38 AM 36.1210 145.3540 80° East 570 656 37,000  Level FlightAware ADS-B
Sat 05:31:15 AM 36.1350 145.4550 80° East 570 656 37,000  Level FlightAware ADS-B
Sat 05:31:51 AM 36.1490 145.5530 80° East 570 656 37,000 Level FlightAware ADS-B
Sat 05:34:00 AM 36.3154 145.8932 59° Northeast  Level Estimated
Sat 05:35:00 AM 36.3925 146.0519 59° Northeast  Level Estimated
Sat 05:36:00 AM 36.4693 146.2109 59° Northeast  Level Estimated
Sat 05:37:00 AM 36.5460 146.3702 59° Northeast  Level Estimated
Sat 05:38:00 AM 36.6224 146.5299 59° Northeast  Level Estimated
Sat 05:39:00 AM 36.6987 146.6899 59° Northeast  Level Estimated
Sat 05:40:00 AM 36.7747 146.8501 59° Northeast  Level Estimated
Sat 05:41:00 AM 36.8505 147.0108 59° Northeast  Level Estimated
Sat 05:42:00 AM 36.9261 147.1717 60° Northeast  Level Estimated
Sat 05:43:00 AM 37.0014 147.3329 60° Northeast  Level Estimated
Sat 05:44:00 AM 37.0766 147.4945 60° Northeast  Level Estimated
Sat 05:45:00 AM 37.1515 147.6564 60° Northeast  Level Estimated
Sat 05:46:00 AM 37.2262 147.8186 60° Northeast  Level Estimated
Sat 05:47:00 AM 37.3007 147.9811 60° Northeast  Level Estimated
Sat 05:48:00 AM 37.3749 148.1440 60° Northeast  Level Estimated
Sat 05:49:00 AM 37.4490 148.3071 60° Northeast  Level Estimated
Sat 05:50:00 AM 37.5228 148.4706 60° Northeast  Level Estimated
Sat 05:51:00 AM 37.5964 148.6344 60° Northeast  Level Estimated
Sat 05:52:00 AM 37.6697 148.7986 61° Northeast  Level Estimated
Sat 05:53:00 AM 37.7429 148.9630 61° Northeast  Level Estimated
Sat 05:54:00 AM 37.8158 149.1278 61° Northeast  Level Estimated
Sat 05:55:00 AM 37.8884 149.2929 61° Northeast  Level Estimated
Sat 05:56:00 AM 37.9609 149.4584 61° Northeast  Level Estimated
Sat 05:57:00 AM 38.0331 149.6241 61° Northeast  Level Estimated
Sat 05:58:00 AM 38.1051 149.7902 61° Northeast  Level Estimated
Sat 05:59:00 AM 38.1768 149.9566 61° Northeast  Level Estimated
Sat 06:00:00 AM 38.2483 150.1234 61° Northeast  Level Estimated
Sat 06:01:00 AM 38.3196 150.2905 61° Northeast  Level Estimated
Sat 06:02:00 AM 38.3906 150.4579 62° Northeast  Level Estimated
Sat 06:03:00 AM 38.4614 150.6256 62° Northeast  Level Estimated
Sat 06:04:00 AM 38.5320 150.7937 62° Northeast  Level Estimated
Sat 06:05:00 AM 38.6023 150.9621 62° Northeast  Level Estimated
Sat 06:06:00 AM 38.6723 151.1308 62° Northeast  Level Estimated
Sat 06:07:00 AM 38.7422 151.2998 62° Northeast  Level Estimated
Sat 06:08:00 AM 38.8117 151.4692 62° Northeast  Level Estimated
Sat 06:09:00 AM 38.8811 151.6389 62° Northeast  Level Estimated
Sat 06:10:00 AM 38.9502 151.8089 62° Northeast  Level Estimated
Sat 06:11:00 AM 39.0190 151.9793 62° Northeast  Level Estimated
Sat 06:12:00 AM 39.0876 152.1500 63° Northeast  Level Estimated
Sat 06:13:00 AM 39.1560 152.3211 63° Northeast  Level Estimated
Sat 06:14:00 AM 39.2241 152.4924 63° Northeast  Level Estimated
Sat 06:15:00 AM 39.2919 152.6641 63° Northeast  Level Estimated
Sat 06:16:00 AM 39.3595 152.8362 63° Northeast  Level Estimated
Sat 06:17:00 AM 39.4269 153.0085 63° Northeast  Level Estimated
Sat 06:18:00 AM 39.4939 153.1812 63° Northeast  Level Estimated
Sat 06:19:00 AM 39.5608 153.3543 63° Northeast  Level Estimated
Sat 06:20:00 AM 39.6273 153.5276 63° Northeast  Level Estimated
Sat 06:21:00 AM 39.6937 153.7013 64° Northeast  Level Estimated
Sat 06:22:00 AM 39.7597 153.8754 64° Northeast  Level Estimated
Sat 06:23:00 AM 39.8255 154.0497 64° Northeast  Level Estimated
Sat 06:24:00 AM 39.8910 154.2244 64° Northeast  Level Estimated
Sat 06:25:00 AM 39.9563 154.3994 64° Northeast  Level Estimated
Sat 06:26:00 AM 40.0213 154.5748 64° Northeast  Level Estimated
Sat 06:27:00 AM 40.0861 154.7505 64° Northeast  Level Estimated
Sat 06:28:00 AM 40.1505 154.9265 64° Northeast  Level Estimated
Sat 06:29:00 AM 40.2147 155.1029 64° Northeast  Level Estimated
Sat 06:30:00 AM 40.2787 155.2796 65° Northeast  Level Estimated
Sat 06:31:00 AM 40.3424 155.4566 65° Northeast  Level Estimated
Sat 06:32:00 AM 40.4058 155.6340 65° Northeast  Level Estimated
Sat 06:33:00 AM 40.4689 155.8117 65° Northeast  Level Estimated
Sat 06:34:00 AM 40.5317 155.9897 65° Northeast  Level Estimated
Sat 06:35:00 AM 40.5943 156.1681 65° Northeast  Level Estimated
Sat 06:36:00 AM 40.6566 156.3468 65° Northeast  Level Estimated
Sat 06:37:00 AM 40.7187 156.5259 65° Northeast  Level Estimated
Sat 06:38:00 AM 40.7804 156.7052 66° East  Level Estimated
Sat 06:39:00 AM 40.8419 156.8849 66° East  Level Estimated
Sat 06:40:00 AM 40.9031 157.0650 66° East  Level Estimated
Sat 06:41:00 AM 40.9640 157.2453 66° East  Level Estimated
Sat 06:42:00 AM 41.0247 157.4260 66° East  Level Estimated
Sat 06:43:00 AM 41.0850 157.6071 66° East  Level Estimated
Sat 06:44:00 AM 41.1451 157.7884 66° East  Level Estimated
Sat 06:45:00 AM 41.2049 157.9701 66° East  Level Estimated
Sat 06:46:00 AM 41.2644 158.1522 66° East  Level Estimated
Sat 06:47:00 AM 41.3236 158.3345 67° East  Level Estimated
Sat 06:48:00 AM 41.3825 158.5172 67° East  Level Estimated
Sat 06:49:00 AM 41.4411 158.7002 67° East  Level Estimated
Sat 06:50:00 AM 41.4995 158.8836 67° East  Level Estimated
Sat 06:51:00 AM 41.5575 159.0673 67° East  Level Estimated
Sat 06:52:00 AM 41.6153 159.2513 67° East  Level Estimated
Sat 06:53:00 AM 41.6727 159.4356 67° East  Level Estimated
Sat 06:54:00 AM 41.7299 159.6203 67° East  Level Estimated
Sat 06:55:00 AM 41.7868 159.8053 68° East  Level Estimated
Sat 06:56:00 AM 41.8434 159.9906 68° East  Level Estimated
Sat 06:57:00 AM 41.8987 160.1732 68° East  Level Estimated
Sat 06:58:00 AM 41.9538 160.3560 68° East  Level Estimated
Sat 06:59:00 AM 42.0085 160.5392 68° East  Level Estimated
Sat 07:00:00 AM 42.0630 160.7227 68° East  Level Estimated
Sat 07:01:00 AM 42.1172 160.9065 68° East  Level Estimated
Sat 07:02:00 AM 42.1710 161.0907 68° East  Level Estimated
Sat 07:03:00 AM 42.2246 161.2751 69° East  Level Estimated
Sat 07:04:00 AM 42.2779 161.4599 69° East  Level Estimated
Sat 07:05:00 AM 42.3309 161.6449 69° East  Level Estimated
Sat 07:06:00 AM 42.3836 161.8303 69° East  Level Estimated
Sat 07:07:00 AM 42.4360 162.0160 69° East  Level Estimated
Sat 07:08:00 AM 42.4881 162.2020 69° East  Level Estimated
Sat 07:09:00 AM 42.5399 162.3883 69° East  Level Estimated
Sat 07:10:00 AM 42.5914 162.5749 69° East  Level Estimated
Sat 07:11:00 AM 42.6426 162.7618 70° East  Level Estimated
Sat 07:12:00 AM 42.6935 162.9491 70° East  Level Estimated
Sat 07:13:00 AM 42.7441 163.1366 70° East  Level Estimated
Sat 07:14:00 AM 42.7943 163.3244 70° East  Level Estimated
Sat 07:15:00 AM 42.8443 163.5126 70° East  Level Estimated
Sat 07:16:00 AM 42.8940 163.7010 70° East  Level Estimated
Sat 07:17:00 AM 42.9433 163.8898 70° East  Level Estimated
Sat 07:18:00 AM 42.9924 164.0789 70° East  Level Estimated
Sat 07:19:00 AM 43.0411 164.2682 71° East  Level Estimated
Sat 07:20:00 AM 43.0895 164.4579 71° East  Level Estimated
Sat 07:20:50 AM 40.5667 167.4000 77° East 598 688 38,000  Level Oakland Oceanic (ODAPS)
Sat 07:21:00 AM 43.1376 164.6478 71° East  Level Estimated
Sat 07:22:00 AM 43.1854 164.8381 71° East  Level Estimated
Sat 07:23:00 AM 43.2328 165.0286 71° East  Level Estimated
Sat 07:24:00 AM 43.2800 165.2195 71° East  Level Estimated
Sat 07:25:00 AM 43.3268 165.4106 71° East  Level Estimated
Sat 07:26:00 AM 43.3734 165.6020 71° East  Level Estimated
Sat 07:27:00 AM 40.7906 168.6958 78° East 598 688 38,000  Level FlightAware Transoceanic
Sat 07:28:00 AM 40.8265 168.9126 78° East 598 688 38,000  Level FlightAware Transoceanic
Sat 07:29:00 AM 40.8620 169.1296 78° East 598 688 38,000  Level FlightAware Transoceanic
Sat 07:30:00 AM 40.8971 169.3468 78° East 598 688 38,000  Level FlightAware Transoceanic
Sat 07:31:00 AM 40.9318 169.5643 78° East 598 688 38,000  Level FlightAware Transoceanic
Sat 07:32:00 AM 40.9661 169.7821 78° East 598 688 38,000  Level FlightAware Transoceanic
Sat 07:33:00 AM 41.0000 170.0000 72° East 598 688 38,000  Level FlightAware Transoceanic
Sat 07:33:20 AM 41.0000 170.0000 72° East 604 695 38,000  Level Oakland Oceanic (ODAPS)
Sat 07:34:00 AM 41.0537 170.2151 72° East 598 688 38,000  Level FlightAware Transoceanic
Sat 07:34:41 AM 41.1000 170.3667 72° East 608 700 38,000  Level Oakland Oceanic (ODAPS)
Sat 07:35:00 AM 41.1070 170.4305 72° East 598 688 38,000  Level FlightAware Transoceanic
Sat 07:36:00 AM 41.1598 170.6463 72° East 598 688 38,000  Level FlightAware Transoceanic
Sat 07:37:00 AM 41.2123 170.8624 72° East 598 688 38,000  Level FlightAware Transoceanic
Sat 07:38:00 AM 41.2644 171.0789 72° East 598 688 38,000  Level FlightAware Transoceanic
Sat 07:39:00 AM 41.3093 171.2674 72° East 604 695 38,000  Level FlightAware Transoceanic
Sat 07:40:00 AM 41.3595 171.4798 73° East 604 695 38,000  Level FlightAware Transoceanic
Sat 07:41:00 AM 41.4554 171.8594 73° East 608 700 38,000  Level FlightAware Transoceanic
Sat 07:42:00 AM 41.5046 172.0739 73° East 608 700 38,000  Level FlightAware Transoceanic
Sat 07:43:00 AM 41.5534 172.2888 73° East 608 700 38,000  Level FlightAware Transoceanic
Sat 07:44:00 AM 41.6018 172.5040 73° East 608 700 38,000  Level FlightAware Transoceanic
Sat 07:45:00 AM 41.6498 172.7195 73° East 608 700 38,000  Level FlightAware Transoceanic
Sat 07:46:00 AM 41.6974 172.9354 74° East 608 700 38,000  Level FlightAware Transoceanic
Sat 07:47:00 AM 41.7446 173.1516 74° East 608 700 38,000  Level FlightAware Transoceanic
Sat 07:48:00 AM 41.7913 173.3681 74° East 608 700 38,000  Level FlightAware Transoceanic
Sat 07:48:35 AM 41.7833 173.3500 74° East 611 703 38,000  Level Oakland Oceanic (ODAPS)
Sat 07:49:00 AM 41.8377 173.5849 74° East 608 700 38,000  Level FlightAware Transoceanic
Sat 07:50:00 AM 41.8837 173.8020 74° East 608 700 38,000  Level FlightAware Transoceanic
Sat 07:51:00 AM 41.9292 174.0194 74° East 608 700 38,000  Level FlightAware Transoceanic
Sat 07:52:00 AM 41.9744 174.2371 74° East 608 700 38,000  Level FlightAware Transoceanic
Sat 07:53:00 AM 42.0191 174.4552 75° East 608 700 38,000  Level FlightAware Transoceanic
Sat 07:54:00 AM 42.0634 174.6735 75° East 608 700 38,000  Level FlightAware Transoceanic
Sat 07:55:00 AM 42.1014 174.8781 75° East 611 703 38,000  Level FlightAware Transoceanic
Sat 07:56:00 AM 42.1451 175.0977 75° East 611 703 38,000  Level FlightAware Transoceanic
Sat 07:57:00 AM 42.1885 175.3175 75° East 611 703 38,000  Level FlightAware Transoceanic
Sat 07:58:00 AM 42.2314 175.5376 75° East 611 703 38,000  Level FlightAware Transoceanic
Sat 07:59:00 AM 42.2739 175.7581 75° East 611 703 38,000  Level FlightAware Transoceanic
Sat 08:00:00 AM 42.3160 175.9788 76° East 611 703 38,000  Level FlightAware Transoceanic
Sat 08:01:00 AM 42.3577 176.1998 76° East 611 703 38,000  Level FlightAware Transoceanic
Sat 08:02:00 AM 42.3989 176.4211 76° East 611 703 38,000  Level FlightAware Transoceanic
Sat 08:02:25 AM 42.4000 176.4167 76° East 618 711 38,000  Level Oakland Oceanic (ODAPS)
Sat 08:03:00 AM 42.4397 176.6427 76° East 611 703 38,000  Level FlightAware Transoceanic
Sat 08:04:00 AM 42.4801 176.8646 76° East 611 703 38,000  Level FlightAware Transoceanic
Sat 08:05:00 AM 42.5201 177.0868 76° East 611 703 38,000  Level FlightAware Transoceanic
Sat 08:06:00 AM 42.5596 177.3093 77° East 611 703 38,000  Level FlightAware Transoceanic
Sat 08:07:00 AM 42.5987 177.5320 77° East 611 703 38,000  Level FlightAware Transoceanic
Sat 08:08:00 AM 42.6381 177.7522 77° East 618 711 38,000  Level FlightAware Transoceanic
Sat 08:09:00 AM 42.6762 177.9758 77° East 618 711 38,000  Level FlightAware Transoceanic
Sat 08:10:00 AM 42.7140 178.1997 77° East 618 711 38,000  Level FlightAware Transoceanic
Sat 08:11:00 AM 42.7513 178.4238 77° East 618 711 38,000  Level FlightAware Transoceanic
Sat 08:12:00 AM 42.7881 178.6482 77° East 618 711 38,000  Level FlightAware Transoceanic
Sat 08:13:00 AM 42.8245 178.8728 78° East 618 711 38,000  Level FlightAware Transoceanic
Sat 08:14:00 AM 42.8605 179.0977 78° East 618 711 38,000  Level FlightAware Transoceanic
Sat 08:15:00 AM 42.8960 179.3229 78° East 618 711 38,000  Level FlightAware Transoceanic
Sat 08:16:00 AM 42.9311 179.5484 78° East 618 711 38,000  Level FlightAware Transoceanic
Sat 08:16:20 AM 42.9333 179.5667 78° East 619 712 38,000  Level Oakland Oceanic (ODAPS)
Sat 08:17:00 AM 42.9658 179.7741 78° East 618 711 38,000  Level FlightAware Transoceanic
Sat 08:18:00 AM 43.0000 -180.0000 79° East 618 711 38,000  Level FlightAware Transoceanic
Sat 08:18:16 AM 43.0000 180.0000 79° East 615 708 38,000  Level Oakland Oceanic (ODAPS)
Sat 08:19:00 AM 43.0331 -179.7717 79° East 618 711 38,000  Level FlightAware Transoceanic
Sat 08:20:00 AM 43.0656 -179.5431 79° East 618 711 38,000  Level FlightAware Transoceanic
Sat 08:21:00 AM 43.0978 -179.3143 79° East 618 711 38,000  Level FlightAware Transoceanic
Sat 08:22:00 AM 43.1295 -179.0853 79° East 619 712 38,000  Level FlightAware Transoceanic
Sat 08:23:00 AM 43.1607 -178.8560 80° East 619 712 38,000  Level FlightAware Transoceanic
Sat 08:24:00 AM 43.1915 -178.6265 80° East 615 708 38,000  Level FlightAware Transoceanic
Sat 08:25:00 AM 43.2218 -178.3967 80° East 615 708 38,000  Level FlightAware Transoceanic
Sat 08:26:00 AM 43.2516 -178.1667 80° East 615 708 38,000  Level FlightAware Transoceanic
Sat 08:27:00 AM 43.2810 -177.9366 80° East 615 708 38,000  Level FlightAware Transoceanic
Sat 08:28:00 AM 43.3099 -177.7061 80° East 615 708 38,000  Level FlightAware Transoceanic
Sat 08:29:00 AM 43.3384 -177.4755 80° East 615 708 38,000  Level FlightAware Transoceanic
Sat 08:30:00 AM 43.3664 -177.2447 81° East 615 708 38,000  Level FlightAware Transoceanic
Sat 08:30:12 AM 43.3667 -177.2167 81° East 620 713 38,000  Level Oakland Oceanic (ODAPS)
Sat 08:31:00 AM 43.3939 -177.0136 81° East 615 708 38,000  Level FlightAware Transoceanic
Sat 08:32:00 AM 43.4210 -176.7823 81° East 615 708 38,000  Level FlightAware Transoceanic
Sat 08:33:00 AM 43.4476 -176.5509 81° East 615 708 38,000  Level FlightAware Transoceanic
Sat 08:34:00 AM 43.4737 -176.3192 81° East 615 708 38,000  Level FlightAware Transoceanic
Sat 08:35:00 AM 43.4994 -176.0873 81° East 615 708 38,000  Level FlightAware Transoceanic
Sat 08:36:00 AM 43.5245 -175.8326 82° East 620 713 38,000  Level FlightAware Transoceanic
Sat 08:37:00 AM 43.5492 -175.6012 82° East 620 713 38,000  Level FlightAware Transoceanic
Sat 08:38:00 AM 43.5734 -175.3697 82° East 620 713 38,000  Level FlightAware Transoceanic
Sat 08:39:00 AM 43.5972 -175.1380 82° East 620 713 38,000  Level FlightAware Transoceanic
Sat 08:40:00 AM 43.6205 -174.9060 82° East 620 713 38,000  Level FlightAware Transoceanic
Sat 08:41:00 AM 43.6433 -174.6739 82° East 620 713 38,000  Level FlightAware Transoceanic
Sat 08:42:00 AM 43.6656 -174.4417 83° East 620 713 38,000  Level FlightAware Transoceanic
Sat 08:43:00 AM 43.6875 -174.2092 83° East 620 713 38,000  Level FlightAware Transoceanic
Sat 08:44:00 AM 43.7089 -173.9766 83° East 620 713 38,000  Level FlightAware Transoceanic
Sat 08:44:04 AM 43.7167 -173.9500 83° East 623 717 38,000  Level Oakland Oceanic (ODAPS)
Sat 08:45:00 AM 43.7298 -173.7439 83° East 620 713 38,000  Level FlightAware Transoceanic
Sat 08:46:00 AM 43.7503 -173.5109 83° East 620 713 38,000  Level FlightAware Transoceanic
Sat 08:47:00 AM 43.7703 -173.2778 83° East 620 713 38,000  Level FlightAware Transoceanic
Sat 08:48:00 AM 43.7898 -173.0446 83° East 620 713 38,000  Level FlightAware Transoceanic
Sat 08:49:00 AM 43.8088 -172.8112 84° East 620 713 38,000  Level FlightAware Transoceanic
Sat 08:50:00 AM 43.8388 -172.4732 84° East 623 717 38,000  Level FlightAware Transoceanic
Sat 08:51:00 AM 43.8574 -172.2265 84° East 623 717 38,000  Level FlightAware Transoceanic
Sat 08:52:00 AM 43.8753 -171.9797 84° East 623 717 38,000  Level FlightAware Transoceanic
Sat 08:53:00 AM 43.8928 -171.7327 84° East 623 717 38,000  Level FlightAware Transoceanic
Sat 08:54:00 AM 43.9097 -171.4856 85° East 623 717 38,000  Level FlightAware Transoceanic
Sat 08:55:00 AM 43.9261 -171.2383 85° East 623 717 38,000  Level FlightAware Transoceanic
Sat 08:56:00 AM 43.9419 -170.9909 85° East 623 717 38,000  Level FlightAware Transoceanic
Sat 08:57:00 AM 43.9573 -170.7433 85° East 623 717 38,000  Level FlightAware Transoceanic
Sat 08:57:56 AM 43.9667 -170.6667 86° East 614 707 38,000  Level Oakland Oceanic (ODAPS)
Sat 08:58:00 AM 43.9720 -170.4957 85° East 623 717 38,000  Level FlightAware Transoceanic
Sat 08:59:00 AM 43.9863 -170.2479 86° East 623 717 38,000  Level FlightAware Transoceanic
Sat 09:00:00 AM 44.0000 -170.0000 79° East 623 717 38,000  Level FlightAware Transoceanic
Sat 09:01:00 AM 44.0316 -169.7820 79° East 623 717 38,000  Level FlightAware Transoceanic
Sat 09:02:00 AM 44.0628 -169.5637 79° East 623 717 38,000  Level FlightAware Transoceanic
Sat 09:03:00 AM 44.0936 -169.3452 79° East 623 717 38,000  Level FlightAware Transoceanic
Sat 09:04:00 AM 44.1239 -169.1265 79° East 614 707 38,000  Level FlightAware Transoceanic
Sat 09:05:00 AM 44.1538 -168.9076 79° East 614 707 38,000  Level FlightAware Transoceanic
Sat 09:06:00 AM 44.1833 -168.6884 79° East 614 707 38,000  Level FlightAware Transoceanic
Sat 09:07:00 AM 44.2124 -168.4691 80° East 614 707 38,000  Level FlightAware Transoceanic
Sat 09:08:00 AM 44.2411 -168.2495 80° East 614 707 38,000  Level FlightAware Transoceanic
Sat 09:09:00 AM 44.2694 -168.0297 80° East 614 707 38,000  Level FlightAware Transoceanic
Sat 09:10:00 AM 44.2972 -167.8097 80° East 614 707 38,000  Level FlightAware Transoceanic
Sat 09:11:00 AM 44.3246 -167.5894 80° East 614 707 38,000  Level FlightAware Transoceanic
Sat 09:11:53 AM 44.3333 -167.4667 80° East 596 686 38,000  Level Oakland Oceanic (ODAPS)
Sat 09:12:00 AM 44.3516 -167.3690 80° East 614 707 38,000  Level FlightAware Transoceanic
Sat 09:13:00 AM 44.3782 -167.1484 81° East 614 707 38,000  Level FlightAware Transoceanic
Sat 09:14:00 AM 44.4043 -166.9276 81° East 614 707 38,000  Level FlightAware Transoceanic
Sat 09:15:00 AM 44.4300 -166.7066 81° East 614 707 38,000  Level FlightAware Transoceanic
Sat 09:16:00 AM 44.4553 -166.4854 81° East 614 707 38,000  Level FlightAware Transoceanic
Sat 09:17:00 AM 44.4802 -166.2640 81° East 614 707 38,000  Level FlightAware Transoceanic
Sat 09:18:00 AM 44.5152 -165.8981 81° East 596 686 38,000  Level FlightAware Transoceanic
Sat 09:19:00 AM 44.5395 -165.6733 81° East 596 686 38,000  Level FlightAware Transoceanic
Sat 09:20:00 AM 44.5633 -165.4482 82° East 596 686 38,000  Level FlightAware Transoceanic
Sat 09:21:00 AM 44.5866 -165.2230 82° East 596 686 38,000  Level FlightAware Transoceanic
Sat 09:22:00 AM 44.6095 -164.9976 82° East 596 686 38,000  Level FlightAware Transoceanic
Sat 09:23:00 AM 44.6320 -164.7720 82° East 596 686 38,000  Level FlightAware Transoceanic
Sat 09:24:00 AM 44.6540 -164.5463 82° East 596 686 38,000  Level FlightAware Transoceanic
Sat 09:25:00 AM 44.6755 -164.3204 82° East 596 686 38,000  Level FlightAware Transoceanic
Sat 09:25:58 AM 44.6833 -164.3000 83° East 585 673 38,000  Level Oakland Oceanic (ODAPS)
Sat 09:26:00 AM 44.6967 -164.0943 83° East 596 686 38,000  Level FlightAware Transoceanic
Sat 09:27:00 AM 44.7174 -163.8680 83° East 596 686 38,000  Level FlightAware Transoceanic
Sat 09:28:00 AM 44.7376 -163.6416 83° East 596 686 38,000  Level FlightAware Transoceanic
Sat 09:29:00 AM 44.7574 -163.4150 83° East 596 686 38,000  Level FlightAware Transoceanic
Sat 09:30:00 AM 44.7767 -163.1883 83° East 596 686 38,000  Level FlightAware Transoceanic
Sat 09:31:00 AM 44.7956 -162.9615 83° East 596 686 38,000  Level FlightAware Transoceanic
Sat 09:32:00 AM 44.8188 -162.7214 84° East 585 673 38,000  Level FlightAware Transoceanic
Sat 09:33:00 AM 44.8363 -162.4953 84° East 585 673 38,000  Level FlightAware Transoceanic
Sat 09:34:00 AM 44.8535 -162.2691 84° East 585 673 38,000  Level FlightAware Transoceanic
Sat 09:35:00 AM 44.8701 -162.0427 84° East 585 673 38,000  Level FlightAware Transoceanic
Sat 09:36:00 AM 44.8863 -161.8162 84° East 585 673 38,000  Level FlightAware Transoceanic
Sat 09:37:00 AM 44.9021 -161.5896 84° East 585 673 38,000  Level FlightAware Transoceanic
Sat 09:38:00 AM 44.9175 -161.3629 85° East 585 673 38,000  Level FlightAware Transoceanic
Sat 09:39:00 AM 44.9323 -161.1360 85° East 585 673 38,000  Level FlightAware Transoceanic
Sat 09:39:31 AM 44.9333 -161.2167 85° East 561 646 38,000  Level Oakland Oceanic (ODAPS)
Sat 09:40:00 AM 44.9468 -160.9090 85° East 585 673 38,000  Level FlightAware Transoceanic
Sat 09:41:00 AM 44.9608 -160.6819 85° East 585 673 38,000  Level FlightAware Transoceanic
Sat 09:42:00 AM 44.9743 -160.4547 85° East 585 673 38,000  Level FlightAware Transoceanic
Sat 09:43:00 AM 44.9874 -160.2274 85° East 585 673 38,000  Level FlightAware Transoceanic
Sat 09:44:00 AM 45.0000 -160.0000 86° East 585 673 38,000  Level FlightAware Transoceanic
Sat 09:45:00 AM 45.0000 -160.0000 86° East 561 646 38,000  Level FlightAware Transoceanic
Sat 09:45:08 AM 45.0000 -160.0000 86° East 550 633 38,000  Level Oakland Oceanic (ODAPS)
Sat 09:46:00 AM 45.0089 -159.7922 87° East 561 646 38,000  Level FlightAware Transoceanic
Sat 09:47:00 AM 45.0174 -159.5843 87° East 561 646 38,000  Level FlightAware Transoceanic
Sat 09:48:00 AM 45.0256 -159.3763 87° East 561 646 38,000  Level FlightAware Transoceanic
Sat 09:49:00 AM 45.0333 -159.1683 87° East 561 646 38,000  Level FlightAware Transoceanic
Sat 09:50:00 AM 45.0407 -158.9602 87° East 561 646 38,000  Level FlightAware Transoceanic
Sat 09:51:00 AM 45.0495 -158.6978 87° East 550 633 38,000  Level FlightAware Transoceanic
Sat 09:52:00 AM 45.0563 -158.4805 88° East 550 633 38,000  Level FlightAware Transoceanic
Sat 09:53:00 AM 45.0627 -158.2633 88° East 550 633 38,000  Level FlightAware Transoceanic
Sat 09:53:22 AM 45.0667 -158.2167 88° East 535 616 38,000  Level Oakland Oceanic (ODAPS)
Sat 09:54:00 AM 45.0687 -158.0459 88° East 550 633 38,000  Level FlightAware Transoceanic
Sat 09:55:00 AM 45.0743 -157.8285 88° East 550 633 38,000  Level FlightAware Transoceanic
Sat 09:56:00 AM 45.0795 -157.6111 88° East 550 633 38,000  Level FlightAware Transoceanic
Sat 09:57:00 AM 45.0842 -157.3936 88° East 550 633 38,000  Level FlightAware Transoceanic
Sat 09:58:00 AM 45.0886 -157.1762 88° East 550 633 38,000  Level FlightAware Transoceanic
Sat 09:59:00 AM 45.0948 -156.9526 89° East 535 616 38,000  Level FlightAware Transoceanic
Sat 10:00:00 AM 45.0981 -156.7418 89° East 535 616 38,000  Level FlightAware Transoceanic
Sat 10:01:00 AM 45.1011 -156.5310 89° East 535 616 38,000  Level FlightAware Transoceanic
Sat 10:02:00 AM 45.1036 -156.3202 89° East 535 616 38,000  Level FlightAware Transoceanic
Sat 10:03:00 AM 45.1058 -156.1093 89° East 535 616 38,000  Level FlightAware Transoceanic
Sat 10:04:00 AM 45.1076 -155.8985 89° East 535 616 38,000  Level FlightAware Transoceanic
Sat 10:05:00 AM 45.1090 -155.6876 90° East 535 616 38,000  Level FlightAware Transoceanic
Sat 10:06:00 AM 45.1100 -155.4767 90° East 535 616 38,000  Level FlightAware Transoceanic
Sat 10:07:00 AM 45.1106 -155.2658 90° East 535 616 38,000  Level FlightAware Transoceanic
Sat 10:07:16 AM 45.1167 -155.3000 90° East 527 606 38,000  Level Oakland Oceanic (ODAPS)
Sat 10:08:00 AM 45.1108 -155.0549 90° East 535 616 38,000  Level FlightAware Transoceanic
Sat 10:09:00 AM 45.1107 -154.8440 90° East 535 616 38,000  Level FlightAware Transoceanic
Sat 10:10:00 AM 45.1101 -154.6331 90° East 535 616 38,000  Level FlightAware Transoceanic
Sat 10:11:00 AM 45.1092 -154.4223 90° East 535 616 38,000  Level FlightAware Transoceanic
Sat 10:12:00 AM 45.1078 -154.2114 91° East 535 616 38,000  Level FlightAware Transoceanic
Sat 10:13:00 AM 45.1115 -154.0754 91° East 527 606 38,000  Level FlightAware Transoceanic
Sat 10:14:00 AM 45.1094 -153.8713 91° East 527 606 38,000  Level FlightAware Transoceanic
Sat 10:15:00 AM 45.1069 -153.6672 91° East 527 606 38,000  Level FlightAware Transoceanic
Sat 10:16:00 AM 45.1040 -153.4632 91° East 527 606 38,000  Level FlightAware Transoceanic
Sat 10:17:00 AM 45.1008 -153.2592 91° East 527 606 38,000  Level FlightAware Transoceanic
Sat 10:18:00 AM 45.0972 -153.0552 91° East 527 606 38,000  Level FlightAware Transoceanic
Sat 10:19:00 AM 45.0933 -152.8512 92° East 527 606 38,000  Level FlightAware Transoceanic
Sat 10:20:00 AM 45.0890 -152.6473 92° East 527 606 38,000  Level FlightAware Transoceanic
Sat 10:21:00 AM 45.0843 -152.4434 92° East 527 606 38,000 896 Level FlightAware Transoceanic
Sat 10:21:07 AM 45.0833 -152.4667 92° East 506 582 39,000  Climbing Oakland Oceanic (ODAPS)
Sat 10:22:00 AM 45.0793 -152.2395 92° East 527 606 38,000 -531 Descending FlightAware Transoceanic
Sat 10:23:00 AM 45.0739 -152.0357 92° East 527 606 38,000  Level FlightAware Transoceanic
Sat 10:24:00 AM 45.0681 -151.8319 92° East 527 606 38,000  Level FlightAware Transoceanic
Sat 10:25:00 AM 45.0620 -151.6282 93° East 527 606 38,000  Level FlightAware Transoceanic
Sat 10:26:00 AM 45.0555 -151.4245 93° East 527 606 38,000 500 Level FlightAware Transoceanic
Sat 10:27:00 AM 45.0483 -151.2324 93° East 506 582 39,000 500 Climbing FlightAware Transoceanic
Sat 10:28:00 AM 45.0412 -151.0269 93° East 506 582 39,000  Level FlightAware Transoceanic
Sat 10:29:00 AM 45.0337 -150.8214 93° East 506 582 39,000  Level FlightAware Transoceanic
Sat 10:30:00 AM 45.0258 -150.6160 93° East 506 582 39,000  Level FlightAware Transoceanic
Sat 10:30:39 AM 45.0167 -150.6000 92° East 494 568 39,000  Level Oakland Oceanic (ODAPS)
Sat 10:31:00 AM 45.0176 -150.4106 93° East 506 582 39,000  Level FlightAware Transoceanic
Sat 10:32:00 AM 45.0090 -150.2053 93° East 506 582 39,000  Level FlightAware Transoceanic
Sat 10:33:00 AM 45.0000 -150.0000 102° East 506 582 39,000  Level FlightAware Transoceanic
Sat 10:33:47 AM 45.0000 -150.0000 102° East 501 577 39,000  Level Oakland Oceanic (ODAPS)
Sat 10:34:00 AM 44.9716 -149.8125 102° East 506 582 39,000  Level FlightAware Transoceanic
Sat 10:34:59 AM 44.9667 -149.7667 102° East 495 570 39,000  Level Oakland Oceanic (ODAPS)
Sat 10:35:00 AM 44.9429 -149.6251 102° East 506 582 39,000  Level FlightAware Transoceanic
Sat 10:36:00 AM 44.9139 -149.4379 102° East 494 568 39,000  Level FlightAware Transoceanic
Sat 10:37:00 AM 44.8845 -149.2510 103° East 494 568 39,000  Level FlightAware Transoceanic
Sat 10:38:00 AM 44.8549 -149.0642 103° East 494 568 39,000  Level FlightAware Transoceanic
Sat 10:39:00 AM 44.8250 -148.8776 103° East 494 568 39,000  Level FlightAware Transoceanic
Sat 10:40:00 AM 44.8182 -148.8354 103° East 501 577 39,000  Level FlightAware Transoceanic
Sat 10:41:00 AM 44.7865 -148.6297 103° East 495 570 39,000  Level FlightAware Transoceanic
Sat 10:42:00 AM 44.7554 -148.4409 103° East 495 570 39,000  Level FlightAware Transoceanic
Sat 10:43:00 AM 44.7240 -148.2524 103° East 495 570 39,000  Level FlightAware Transoceanic
Sat 10:44:00 AM 44.6923 -148.0640 103° East 495 570 39,000  Level FlightAware Transoceanic
Sat 10:45:00 AM 44.6602 -147.8758 104° East 495 570 39,000  Level FlightAware Transoceanic
Sat 10:46:00 AM 44.6278 -147.6879 104° East 495 570 39,000  Level FlightAware Transoceanic
Sat 10:47:00 AM 44.5952 -147.5001 104° East 495 570 39,000  Level FlightAware Transoceanic
Sat 10:48:00 AM 44.5622 -147.3126 104° East 495 570 39,000  Level FlightAware Transoceanic
Sat 10:48:55 AM 44.5333 -147.2000 104° East 497 572 39,000  Level Oakland Oceanic (ODAPS)
Sat 10:49:00 AM 44.5289 -147.1252 104° East 495 570 39,000  Level FlightAware Transoceanic
Sat 10:50:00 AM 44.4954 -146.9381 104° East 495 570 39,000  Level FlightAware Transoceanic
Sat 10:51:00 AM 44.4615 -146.7512 104° East 495 570 39,000  Level FlightAware Transoceanic
Sat 10:52:00 AM 44.4273 -146.5645 104° East 495 570 39,000  Level FlightAware Transoceanic
Sat 10:53:00 AM 44.3928 -146.3781 105° East 495 570 39,000  Level FlightAware Transoceanic
Sat 10:54:00 AM 44.3580 -146.1918 105° East 495 570 39,000  Level FlightAware Transoceanic
Sat 10:55:00 AM 44.3272 -146.0688 105° East 497 572 39,000  Level FlightAware Transoceanic
Sat 10:56:00 AM 44.2918 -145.8810 105° East 497 572 39,000  Level FlightAware Transoceanic
Sat 10:57:00 AM 44.2561 -145.6935 105° East 497 572 39,000  Level FlightAware Transoceanic
Sat 10:58:00 AM 44.2200 -145.5062 105° East 497 572 39,000  Level FlightAware Transoceanic
Sat 10:59:00 AM 44.1836 -145.3192 105° East 497 572 39,000  Level FlightAware Transoceanic
Sat 11:00:00 AM 44.1470 -145.1323 105° East 497 572 39,000  Level FlightAware Transoceanic
Sat 11:01:00 AM 44.1100 -144.9457 105° East 497 572 39,000  Level FlightAware Transoceanic
Sat 11:02:00 AM 44.0728 -144.7594 106° East 497 572 39,000  Level FlightAware Transoceanic
Sat 11:02:45 AM 44.0500 -144.6000 106° East 506 582 39,000  Level Oakland Oceanic (ODAPS)
Sat 11:03:00 AM 44.0352 -144.5732 106° East 497 572 39,000  Level FlightAware Transoceanic
Sat 11:04:00 AM 43.9973 -144.3873 106° East 497 572 39,000  Level FlightAware Transoceanic
Sat 11:05:00 AM 43.9591 -144.2017 106° East 497 572 39,000  Level FlightAware Transoceanic
Sat 11:06:00 AM 43.9207 -144.0163 106° East 497 572 39,000  Level FlightAware Transoceanic
Sat 11:07:00 AM 43.8819 -143.8311 106° East 497 572 39,000  Level FlightAware Transoceanic
Sat 11:08:00 AM 43.8428 -143.6462 106° East 497 572 39,000  Level FlightAware Transoceanic
Sat 11:09:00 AM 43.7747 -143.2960 107° East 506 582 39,000  Level FlightAware Transoceanic
Sat 11:10:00 AM 43.7341 -143.1107 107° East 506 582 39,000  Level FlightAware Transoceanic
Sat 11:11:00 AM 43.6933 -142.9256 107° East 506 582 39,000  Level FlightAware Transoceanic
Sat 11:12:00 AM 43.6522 -142.7408 107° East 506 582 39,000  Level FlightAware Transoceanic
Sat 11:13:00 AM 43.6108 -142.5563 107° East 506 582 39,000  Level FlightAware Transoceanic
Sat 11:14:00 AM 43.5690 -142.3720 107° East 506 582 39,000  Level FlightAware Transoceanic
Sat 11:15:00 AM 43.5270 -142.1880 108° East 506 582 39,000  Level FlightAware Transoceanic
Sat 11:16:00 AM 43.4847 -142.0042 108° East 506 582 39,000  Level FlightAware Transoceanic
Sat 11:16:37 AM 43.5000 -142.0500 108° East 501 577 39,000  Level Oakland Oceanic (ODAPS)
Sat 11:17:00 AM 43.4421 -141.8207 108° East 506 582 39,000  Level FlightAware Transoceanic
Sat 11:18:00 AM 43.3992 -141.6375 108° East 506 582 39,000  Level FlightAware Transoceanic
Sat 11:19:00 AM 43.3560 -141.4545 108° East 506 582 39,000  Level FlightAware Transoceanic
Sat 11:19:42 AM 43.3667 -141.4833 108° East 503 579 39,000  Level Oakland Oceanic (ODAPS)
Sat 11:20:00 AM 43.3125 -141.2717 108° East 506 582 39,000  Level FlightAware Transoceanic
Sat 11:21:00 AM 43.2687 -141.0893 108° East 506 582 39,000  Level FlightAware Transoceanic
Sat 11:22:00 AM 43.2247 -140.9070 108° East 506 582 39,000  Level FlightAware Transoceanic
Sat 11:23:00 AM 43.2128 -140.8501 109° East 501 577 39,000  Level FlightAware Transoceanic
Sat 11:24:00 AM 43.1707 -140.6796 109° East 501 577 39,000  Level FlightAware Transoceanic
Sat 11:25:00 AM 43.1284 -140.5093 109° East 501 577 39,000  Level FlightAware Transoceanic
Sat 11:26:00 AM 43.0831 -140.3281 109° East 503 579 39,000  Level FlightAware Transoceanic
Sat 11:27:00 AM 43.0417 -140.1639 109° East 503 579 39,000  Level FlightAware Transoceanic
Sat 11:28:00 AM 43.0000 -140.0000 108° East 503 579 39,000  Level FlightAware Transoceanic
Sat 11:28:00 AM 43.0000 -140.0000 108° East 499 574 39,000  Level Oakland Oceanic (ODAPS)
Sat 11:29:00 AM 42.9558 -139.8199 109° East 503 579 39,000  Level FlightAware Transoceanic
Sat 11:30:00 AM 42.9114 -139.6400 109° East 503 579 39,000  Level FlightAware Transoceanic
Sat 11:30:29 AM 42.8833 -139.5500 109° East 499 574 39,000  Level Oakland Oceanic (ODAPS)
Sat 11:31:00 AM 42.8667 -139.4603 109° East 503 579 39,000  Level FlightAware Transoceanic
Sat 11:32:00 AM 42.8217 -139.2810 109° East 503 579 39,000  Level FlightAware Transoceanic
Sat 11:33:00 AM 42.7765 -139.1019 109° East 503 579 39,000  Level FlightAware Transoceanic
Sat 11:34:00 AM 42.7309 -138.9230 109° East 499 574 39,000  Level FlightAware Transoceanic
Sat 11:35:00 AM 42.6851 -138.7445 109° East 499 574 39,000  Level FlightAware Transoceanic
Sat 11:36:00 AM 42.6132 -138.4866 109° East 499 574 39,000  Level FlightAware Transoceanic
Sat 11:37:00 AM 42.5672 -138.3103 110° East 499 574 39,000  Level FlightAware Transoceanic
Sat 11:38:00 AM 42.5209 -138.1342 110° East 499 574 39,000  Level FlightAware Transoceanic
Sat 11:39:00 AM 42.4744 -137.9584 110° East 499 574 39,000  Level FlightAware Transoceanic
Sat 11:40:00 AM 42.4276 -137.7829 110° East 499 574 39,000  Level FlightAware Transoceanic
Sat 11:41:00 AM 42.3806 -137.6076 110° East 499 574 39,000  Level FlightAware Transoceanic
Sat 11:42:00 AM 42.3332 -137.4326 110° East 499 574 39,000  Level FlightAware Transoceanic
Sat 11:43:00 AM 42.2856 -137.2578 110° East 499 574 39,000  Level FlightAware Transoceanic
Sat 11:44:00 AM 42.2378 -137.0834 110° East 499 574 39,000  Level FlightAware Transoceanic
Sat 11:44:19 AM 42.2500 -137.1167 110° East 499 574 39,000  Level Oakland Oceanic (ODAPS)
Sat 11:45:00 AM 42.1897 -136.9091 111° Southeast 499 574 39,000  Level FlightAware Transoceanic
Sat 11:46:00 AM 42.1413 -136.7352 111° Southeast 499 574 39,000  Level FlightAware Transoceanic
Sat 11:47:00 AM 42.0926 -136.5615 111° Southeast 499 574 39,000  Level FlightAware Transoceanic
Sat 11:48:00 AM 42.0437 -136.3881 111° Southeast 499 574 39,000  Level FlightAware Transoceanic
Sat 11:49:00 AM 41.9946 -136.2149 111° Southeast 499 574 39,000  Level FlightAware Transoceanic
Sat 11:50:00 AM 41.9559 -136.0703 111° Southeast 499 574 39,000  Level FlightAware Transoceanic
Sat 11:51:00 AM 41.9059 -135.8968 111° Southeast 499 574 39,000  Level FlightAware Transoceanic
Sat 11:52:00 AM 41.8557 -135.7236 111° Southeast 499 574 39,000  Level FlightAware Transoceanic
Sat 11:53:00 AM 41.8053 -135.5507 111° Southeast 499 574 39,000  Level FlightAware Transoceanic
Sat 11:54:00 AM 41.7545 -135.3781 112° Southeast 499 574 39,000  Level FlightAware Transoceanic
Sat 11:55:00 AM 41.7036 -135.2057 112° Southeast 499 574 39,000  Level FlightAware Transoceanic
Sat 11:56:00 AM 41.6523 -135.0336 112° Southeast 499 574 39,000  Level FlightAware Transoceanic
Sat 11:57:00 AM 41.6008 -134.8618 112° Southeast 499 574 39,000  Level FlightAware Transoceanic
Sat 11:58:00 AM 41.5491 -134.6903 112° Southeast 499 574 39,000 833 Level FlightAware Transoceanic
Sat 11:58:12 AM 41.5500 -134.7167 112° Southeast 503 579 40,000  Climbing Oakland Oceanic (ODAPS)
Sat 11:59:00 AM 41.4971 -134.5190 112° Southeast 499 574 39,000 -556 Descending FlightAware Transoceanic
Sat 12:00:00 PM 41.4448 -134.3480 112° Southeast 499 574 39,000  Level FlightAware Transoceanic
Sat 12:01:00 PM 41.3923 -134.1773 112° Southeast 499 574 39,000  Level FlightAware Transoceanic
Sat 12:02:00 PM 41.3396 -134.0069 112° Southeast 499 574 39,000  Level FlightAware Transoceanic
Sat 12:03:00 PM 41.2865 -133.8367 113° Southeast 499 574 39,000 500 Level FlightAware Transoceanic
Sat 12:04:00 PM 41.2342 -133.6875 113° Southeast 503 579 40,000 500 Climbing FlightAware Transoceanic
Sat 12:05:00 PM 41.1807 -133.5169 113° Southeast 503 579 40,000  Level FlightAware Transoceanic
Sat 12:06:00 PM 41.1269 -133.3466 113° Southeast 503 579 40,000  Level FlightAware Transoceanic
Sat 12:07:00 PM 41.0729 -133.1766 113° Southeast 503 579 40,000  Level FlightAware Transoceanic
Sat 12:08:00 PM 41.0186 -133.0069 113° Southeast 503 579 40,000  Level FlightAware Transoceanic
Sat 12:09:00 PM 40.9641 -132.8374 113° Southeast 503 579 40,000  Level FlightAware Transoceanic
Sat 12:10:00 PM 40.9093 -132.6683 113° Southeast 503 579 40,000  Level FlightAware Transoceanic
Sat 12:11:00 PM 40.8543 -132.4994 113° Southeast 503 579 40,000  Level FlightAware Transoceanic
Sat 12:12:00 PM 40.7990 -132.3308 113° Southeast 503 579 40,000  Level FlightAware Transoceanic
Sat 12:12:13 PM 40.8000 -132.3333 113° Southeast 505 581 40,000  Level Oakland Oceanic (ODAPS)
Sat 12:13:00 PM 40.7435 -132.1625 114° Southeast 503 579 40,000  Level FlightAware Transoceanic
Sat 12:14:00 PM 40.6878 -131.9944 114° Southeast 503 579 40,000  Level FlightAware Transoceanic
Sat 12:15:00 PM 40.6317 -131.8267 114° Southeast 503 579 40,000  Level FlightAware Transoceanic
Sat 12:16:00 PM 40.5755 -131.6592 114° Southeast 503 579 40,000  Level FlightAware Transoceanic
Sat 12:17:00 PM 40.5190 -131.4920 114° Southeast 503 579 40,000  Level FlightAware Transoceanic
Sat 12:18:00 PM 40.4629 -131.3265 114° Southeast 505 581 40,000  Level FlightAware Transoceanic
Sat 12:19:00 PM 40.4059 -131.1597 114° Southeast 505 581 40,000  Level FlightAware Transoceanic
Sat 12:20:00 PM 40.3486 -130.9932 114° Southeast 505 581 40,000  Level FlightAware Transoceanic
Sat 12:21:00 PM 40.2911 -130.8270 114° Southeast 505 581 40,000  Level FlightAware Transoceanic
Sat 12:22:00 PM 40.2333 -130.6610 115° Southeast 505 581 40,000  Level FlightAware Transoceanic
Sat 12:23:00 PM 40.1754 -130.4953 115° Southeast 505 581 40,000  Level FlightAware Transoceanic
Sat 12:24:00 PM 40.1171 -130.3299 115° Southeast 505 581 40,000  Level FlightAware Transoceanic
Sat 12:25:00 PM 40.0587 -130.1648 115° Southeast 505 581 40,000  Level FlightAware Transoceanic
Sat 12:25:58 PM 40.0000 -130.0000 122° Southeast 513 590 40,000  Level Oakland Oceanic (ODAPS)
Sat 12:26:00 PM 40.0000 -130.0000 122° Southeast 505 581 40,000  Level FlightAware Transoceanic
Sat 12:27:00 PM 39.9212 -129.8388 123° Southeast 505 581 40,000  Level FlightAware Transoceanic
Sat 12:28:00 PM 39.8423 -129.6780 123° Southeast 505 581 40,000  Level FlightAware Transoceanic
Sat 12:29:00 PM 39.7631 -129.5175 123° Southeast 505 581 40,000  Level FlightAware Transoceanic
Sat 12:30:00 PM 39.6837 -129.3575 123° Southeast 505 581 40,000  Level FlightAware Transoceanic
Sat 12:30:54 PM 39.6000 -129.2000 123° Southeast 515 593 40,000  Level Oakland Oceanic (ODAPS)
Sat 12:31:00 PM 39.6040 -129.1978 123° Southeast 505 581 40,000  Level FlightAware Transoceanic
Sat 12:32:00 PM 39.5242 -129.0384 123° Southeast 513 590 40,000  Level FlightAware Transoceanic
Sat 12:33:00 PM 39.4441 -128.8795 123° Southeast 513 590 40,000  Level FlightAware Transoceanic
Sat 12:34:00 PM 39.3638 -128.7208 123° Southeast 513 590 40,000  Level FlightAware Transoceanic
Sat 12:35:00 PM 39.2833 -128.5626 123° Southeast 513 590 40,000  Level FlightAware Transoceanic
Sat 12:36:00 PM 39.2026 -128.4047 123° Southeast 513 590 40,000  Level FlightAware Transoceanic
Sat 12:37:00 PM 39.1194 -128.2485 123° Southeast 515 593 40,000  Level FlightAware Transoceanic
Sat 12:38:00 PM 39.0385 -128.0912 124° Southeast 515 593 40,000  Level FlightAware Transoceanic
Sat 12:39:00 PM 38.9574 -127.9342 124° Southeast 515 593 40,000  Level FlightAware Transoceanic
Sat 12:39:44 PM 38.9167 -127.8500 124° Southeast 513 590 40,000  Level Oakland Oceanic (ODAPS)
Sat 12:40:00 PM 38.8762 -127.7776 124° Southeast 515 593 40,000  Level FlightAware Transoceanic
Sat 12:41:00 PM 38.7947 -127.6214 124° Southeast 515 593 40,000  Level FlightAware Transoceanic
Sat 12:42:00 PM 38.7130 -127.4655 124° Southeast 515 593 40,000  Level FlightAware Transoceanic
Sat 12:42:38 PM 38.6811 -127.4008 111° Southeast 510 587 40,000  Level Oakland Center
Sat 12:43:00 PM 38.6311 -127.3100 124° Southeast 515 593 40,000  Level FlightAware Transoceanic
Sat 12:43:40 PM 38.6019 -127.2528 124° Southeast 507 583 40,000  Level Oakland Center
Sat 12:44:00 PM 38.5490 -127.1548 124° Southeast 515 593 40,000  Level FlightAware Transoceanic
Sat 12:44:41 PM 38.5239 -127.1042 124° Southeast 507 583 40,000  Level Oakland Center
Sat 12:45:00 PM 38.4667 -127.0000 111° Southeast 513 590 40,000 -98 Level FlightAware Transoceanic
Sat 12:45:42 PM 38.4497 -126.9508 122° Southeast 508 585 39,900  Descending Oakland Center
Sat 12:46:00 PM 38.4158 -126.8324 111° Southeast 513 590 40,000 97 Climbing FlightAware Transoceanic
Sat 12:46:44 PM 38.3897 -126.7861 115° Southeast 514 592 40,000  Level Oakland Center
Sat 12:47:00 PM 38.3646 -126.6650 111° Southeast 513 590 40,000  Level FlightAware Transoceanic
Sat 12:47:45 PM 38.3328 -126.6242 114° Southeast 507 583 40,000  Level Oakland Center
Sat 12:48:00 PM 38.3132 -126.4979 111° Southeast 513 590 40,000  Level FlightAware Transoceanic
Sat 12:48:46 PM 38.2608 -126.4286 115° Southeast 509 586 40,000  Level Oakland Center
Sat 12:49:48 PM 38.2011 -126.2658 115° Southeast 508 585 40,000  Level Oakland Center
Sat 12:50:49 PM 38.1392 -126.0944 115° Southeast 509 586 40,000 -49 Level Oakland Center
Sat 12:51:51 PM 38.0794 -125.9336 115° Southeast 507 583 39,900  Descending Oakland Center
Sat 12:52:52 PM 38.0194 -125.7728 115° Southeast 506 582 40,000 146 Climbing Oakland Center
Sat 12:53:54 PM 37.9603 -125.6128 115° Southeast 504 580 40,200 439 Climbing Oakland Center
Sat 12:54:55 PM 37.9000 -125.4536 116° Southeast 503 579 40,900 71 Climbing Oakland Center
Sat 12:56:00 PM 37.8302 -125.2707 116° Southeast  Level FlightAware Approximate
Sat 01:03:00 PM 37.3723 -124.0972 116° Southeast  Level FlightAware Approximate
Sat 01:04:00 PM 37.3060 -123.9308 117° Southeast  Level FlightAware Approximate
Sat 01:05:00 PM 37.2394 -123.7646 117° Southeast  Level FlightAware Approximate
Sat 01:05:09 PM 37.2660 -123.8180 117° Southeast 500 575 41,000  Level FlightAware ADS-B
Sat 01:05:51 PM 37.2280 -123.7210 116° Southeast 500 575 41,000  Level FlightAware ADS-B
Sat 01:06:30 PM 37.1840 -123.6130 117° Southeast 495 570 41,000  Level FlightAware ADS-B
Sat 01:07:01 PM 37.1510 -123.5290 116° Southeast 495 570 41,000  Level FlightAware ADS-B
Sat 01:07:37 PM 37.1140 -123.4370 117° Southeast 495 570 41,000  Level FlightAware ADS-B
Sat 01:08:11 PM 37.0790 -123.3510 117° Southeast 495 570 41,000  Level FlightAware ADS-B
Sat 01:08:47 PM 37.0420 -123.2580 116° Southeast 495 570 41,000  Level FlightAware ADS-B
Sat 01:09:23 PM 37.0050 -123.1660 117° Southeast 496 571 41,000  Level FlightAware ADS-B
Sat 01:09:55 PM 36.9710 -123.0840 117° Southeast 496 571 41,000  Level FlightAware ADS-B
Sat 01:10:33 PM 36.9330 -122.9890 117° Southeast 496 571 41,000  Level FlightAware ADS-B
Sat 01:10:57 PM 36.9080 -122.9280 117° Southeast 496 571 41,000  Level FlightAware ADS-B
Sat 01:11:39 PM 36.8640 -122.8200 117° Southeast 497 572 41,000  Level FlightAware ADS-B
Sat 01:12:13 PM 36.8280 -122.7320 117° Southeast 496 571 41,000  Level FlightAware ADS-B
Sat 01:12:49 PM 36.7910 -122.6420 117° Southeast 496 571 41,000  Level FlightAware ADS-B
Sat 01:13:25 PM 36.7520 -122.5490 118° Southeast 495 570 41,000  Level FlightAware ADS-B
Sat 01:13:57 PM 36.7190 -122.4700 118° Southeast 495 570 41,000  Level FlightAware ADS-B
Sat 01:14:33 PM 36.6810 -122.3780 117° Southeast 495 570 41,000  Level FlightAware ADS-B
Sat 01:14:57 PM 36.6558 -122.3170 117° Southeast 41,000  Level FlightAware ADS-B
Sat 01:15:06 PM 36.6459 -122.2930 117° Southeast 496 571 41,000  Level FlightAware ADS-B
Sat 01:15:45 PM 36.6060 -122.1970 117° Southeast 495 570 41,000  Level FlightAware ADS-B
Sat 01:15:57 PM 36.5923 -122.1650 118° Southeast 496 571 41,000  Level FlightAware ADS-B
Sat 01:16:55 PM 36.5310 -122.0180 117° Southeast 494 568 41,000  Level FlightAware ADS-B
Sat 01:17:31 PM 36.4940 -121.9300 118° Southeast 495 570 41,000  Level FlightAware ADS-B
Sat 01:18:03 PM 36.4590 -121.8480 118° Southeast 495 570 41,000  Level FlightAware ADS-B
Sat 01:18:39 PM 36.4210 -121.7580 118° Southeast 494 568 41,000  Level FlightAware ADS-B
Sat 01:19:15 PM 36.3830 -121.6690 118° Southeast 494 568 41,000  Level FlightAware ADS-B
Sat 01:19:51 PM 36.3450 -121.5790 118° Southeast 493 567 41,000  Level FlightAware ADS-B
Sat 01:20:23 PM 36.3100 -121.4960 118° Southeast 494 568 41,000  Level FlightAware ADS-B
Sat 01:21:11 PM 36.2690 -121.4010 118° Southeast 494 568 41,000  Level FlightAware ADS-B
Sat 01:21:49 PM 36.2250 -121.2980 118° Southeast 494 568 41,000  Level FlightAware ADS-B
Sat 01:22:22 PM 36.1850 -121.2040 118° Southeast 494 568 41,000  Level FlightAware ADS-B
Sat 01:22:58 PM 36.1460 -121.1150 118° Southeast 496 571 41,000  Level FlightAware ADS-B
Sat 01:23:30 PM 36.1110 -121.0330 118° Southeast 496 571 41,000  Level FlightAware ADS-B
Sat 01:24:04 PM 36.0740 -120.9490 119° Southeast 495 570 41,000  Level FlightAware ADS-B
Sat 01:24:44 PM 36.0310 -120.8490 118° Southeast 495 570 41,000  Level FlightAware ADS-B
Sat 01:25:17 PM 35.9960 -120.7690 118° Southeast 494 568 41,000  Level FlightAware ADS-B
Sat 01:25:52 PM 35.9570 -120.6800 118° Southeast 495 570 41,000  Level FlightAware ADS-B
Sat 01:26:33 PM 35.9120 -120.5770 118° Southeast 495 570 41,000  Level FlightAware ADS-B
Sat 01:27:11 PM 35.8700 -120.4820 119° Southeast 495 570 41,000  Level FlightAware ADS-B
Sat 01:27:41 PM 35.8370 -120.4080 119° Southeast 495 570 41,000  Level FlightAware ADS-B
Sat 01:28:21 PM 35.7930 -120.3080 118° Southeast 496 571 41,000  Level FlightAware ADS-B
Sat 01:28:56 PM 35.7560 -120.2240 118° Southeast 496 571 41,000  Level FlightAware ADS-B
Sat 01:29:28 PM 35.7210 -120.1450 119° Southeast 491 565 41,000  Level FlightAware ADS-B
Sat 01:30:02 PM 35.6840 -120.0630 119° Southeast 486 559 41,000 -909 Level FlightAware ADS-B
Sat 01:30:34 PM 35.6440 -119.9890 124° Southeast 482 555 40,000 -2,200 Descending FlightAware ADS-B
Sat 01:31:02 PM 35.5980 -119.9370 137° Southeast 473 544 38,800 -3,724 Descending FlightAware ADS-B
Sat 01:31:32 PM 35.5440 -119.8900 145° Southeast 500 575 36,400 -4,031 Descending FlightAware ADS-B
Sat 01:32:06 PM 35.4790 -119.8330 144° Southeast 510 587 34,500 -2,550 Descending FlightAware ADS-B
Sat 01:32:52 PM 35.3910 -119.7580 145° Southeast 482 555 33,000 -1,807 Descending FlightAware ADS-B
Sat 01:33:29 PM 35.3240 -119.7000 145° Southeast 468 539 32,000 -1,652 Descending FlightAware ADS-B
Sat 01:34:01 PM 35.2700 -119.6530 145° Southeast 459 528 31,100 -1,612 Descending FlightAware ADS-B
Sat 01:34:36 PM 35.2080 -119.6000 145° Southeast 448 516 30,200 -1,562 Descending FlightAware ADS-B
Sat 01:35:14 PM 35.1460 -119.5470 145° Southeast 440 506 29,200 -1,606 Descending FlightAware ADS-B
Sat 01:35:47 PM 35.0900 -119.5000 146° Southeast 433 498 28,300 -1,652 Descending FlightAware ADS-B
Sat 01:36:23 PM 35.0330 -119.4510 145° Southeast 426 490 27,300 -1,667 Descending FlightAware ADS-B
Sat 01:36:59 PM 34.9750 -119.4020 145° Southeast 422 486 26,300 -1,690 Descending FlightAware ADS-B
Sat 01:37:34 PM 34.9170 -119.3530 145° Southeast 419 482 25,300 -1,619 Descending FlightAware ADS-B
Sat 01:38:02 PM 34.8750 -119.3170 145° Southeast 415 478 24,600 -1,606 Descending FlightAware ADS-B
Sat 01:38:45 PM 34.8070 -119.2600 145° Southeast 398 458 23,400 -1,622 Descending FlightAware ADS-B
Sat 01:39:16 PM 34.7610 -119.2200 144° Southeast 392 451 22,600 -1,569 Descending FlightAware ADS-B
Sat 01:39:50 PM 34.7090 -119.1770 146° Southeast 392 451 21,700 -1,543 Descending FlightAware ADS-B
Sat 01:40:26 PM 34.6580 -119.1330 145° Southeast 388 447 20,800 -1,629 Descending FlightAware ADS-B
Sat 01:41:00 PM 34.6060 -119.0900 146° Southeast 376 433 19,800 -1,600 Descending FlightAware ADS-B
Sat 01:41:41 PM 34.5470 -119.0400 145° Southeast 377 434 18,800 -1,575 Descending FlightAware ADS-B
Sat 01:42:20 PM 34.4910 -118.9940 146° Southeast 372 428 17,700 -1,622 Descending FlightAware ADS-B
Sat 01:42:55 PM 34.4410 -118.9520 145° Southeast 369 425 16,800 -1,629 Descending FlightAware ADS-B
Sat 01:43:30 PM 34.3930 -118.9110 145° Southeast 355 409 15,800 -1,606 Descending FlightAware ADS-B
Sat 01:44:06 PM 34.3410 -118.8760 151° Southeast 347 399 14,900 -1,520 Descending FlightAware ADS-B
Sat 01:44:45 PM 34.2790 -118.8530 163° South 339 390 13,900 -1,520 Descending FlightAware ADS-B
Sat 01:45:21 PM 34.2260 -118.8330 163° South 339 390 13,000 -1,606 Descending FlightAware ADS-B
Sat 01:45:56 PM 34.1720 -118.8130 163° South 333 383 12,000 -1,286 Descending FlightAware ADS-B
Sat 01:46:31 PM 34.1210 -118.7950 164° South 320 368 11,500 -857 Descending FlightAware ADS-B
Sat 01:47:06 PM 34.0730 -118.7770 163° South 305 351 11,000 -840 Descending FlightAware ADS-B
Sat 01:47:21 PM 34.0550 -118.7640 149° Southeast 298 343 10,800 -923 Descending FlightAware ADS-B
Sat 01:47:32 PM 34.0460 -118.7520 132° Southeast 295 339 10,600 -923 Descending FlightAware ADS-B
Sat 01:47:47 PM 34.0370 -118.7290 115° Southeast 290 334 10,400 -600 Descending FlightAware ADS-B
Sat 01:48:02 PM 34.0330 -118.7050 101° East 291 335 10,300 -682 Descending FlightAware ADS-B
Sat 01:48:31 PM 34.0290 -118.6580 96° East 288 331 9,900 -1,080 Descending FlightAware ADS-B
Sat 01:48:52 PM 34.0260 -118.6260 96° East 284 327 9,400 -1,579 Descending FlightAware ADS-B
Sat 01:49:09 PM 34.0240 -118.5990 95° East 283 326 8,900 -1,610 Descending FlightAware ADS-B
Sat 01:49:33 PM 34.0200 -118.5610 97° East 279 321 8,300 -1,600 Descending FlightAware ADS-B
Sat 01:49:54 PM 34.0170 -118.5300 97° East 277 319 7,700 -1,756 Descending FlightAware ADS-B
Sat 01:50:14 PM 34.0140 -118.4980 96° East 281 323 7,100 -1,091 Descending FlightAware ADS-B
Sat 01:50:38 PM 34.0110 -118.4600 95° East 282 325 6,900 -1,091 Descending FlightAware ADS-B
Sat 01:50:58 PM 34.0140 -118.4280 84° East 280 322 6,300 -2,063 Descending FlightAware ADS-B
Sat 01:51:10 PM 34.0160 -118.4090 83° East 276 318 5,800 -1,941 Descending FlightAware ADS-B
Sat 01:51:32 PM 34.0200 -118.3760 82° East 263 303 5,200 -1,364 Descending FlightAware ADS-B
Sat 01:51:54 PM 34.0230 -118.3460 83° East 241 277 4,800 -1,395 Descending FlightAware ADS-B
Sat 01:52:15 PM 34.0260 -118.3180 83° East 222 255 4,200 -1,463 Descending FlightAware ADS-B
Sat 01:52:35 PM 34.0280 -118.2960 84° East 207 238 3,800 -1,231 Descending FlightAware ADS-B
Sat 01:52:54 PM 34.0310 -118.2740 81° East 198 228 3,400 -1,256 Descending FlightAware ADS-B
Sat 01:53:18 PM 34.0330 -118.2480 85° East 191 220 2,900 -577 Descending FlightAware ADS-B
Sat 01:53:46 PM 34.0280 -118.2200 102° East 190 219 2,900 -146 Level FlightAware ADS-B
Sat 01:53:59 PM 34.0180 -118.2130 150° Southeast 184 212 2,800 -818 Descending FlightAware ADS-B
Sat 01:54:08 PM 34.0120 -118.2120 172° South 183 211 2,600 -1,059 Descending FlightAware ADS-B
Sat 01:54:16 PM 34.0040 -118.2120 180° South 184 212 2,500 -947 Descending FlightAware ADS-B
Sat 01:54:27 PM 33.9950 -118.2150 195° South 185 213 2,300 -900 Descending FlightAware ADS-B
Sat 01:54:36 PM 33.9880 -118.2190 205° Southwest 186 214 2,200 -750 Descending FlightAware ADS-B
Sat 01:54:43 PM 33.9840 -118.2230 220° Southwest 185 213 2,100 -643 Descending FlightAware ADS-B
Sat 01:55:04 PM 33.9740 -118.2390 233° Southwest 172 198 1,900 -308 Descending FlightAware ADS-B
Sat 01:55:22 PM 33.9680 -118.2540 244° Southwest 171 197 1,900  Level FlightAware ADS-B
Sat 01:55:26 PM 33.9670 -118.2600 259° West 172 198 1,900  Level FlightAware ADS-B
Sat 01:55:52 PM 33.9640 -118.2830 261° West 173 199 1,900 -250 Level FlightAware ADS-B
Sat 01:56:14 PM 33.9630 -118.2980 265° West 161 185 1,700 -789 Descending FlightAware ADS-B
Sat 01:56:30 PM 33.9610 -118.3170 263° West 154 177 1,400 -783 Descending FlightAware ADS-B
Sat 01:57:00 PM 33.9580 -118.3390 261° West 154 177 1,100 -824 Descending FlightAware ADS-B
Sat 01:57:21 PM 33.9560 -118.3600 263° West 150 173 700 -923 Descending FlightAware ADS-B
Sat 01:57:39 PM 33.9550 -118.3740 265° West 148 170 500 -789 Descending FlightAware ADS-B
Sat 01:57:59 PM 33.9530 -118.3920 262° West 143 165 200 -400 Descending FlightAware ADS-B
Sat 01:58:24 PM 33.9510 -118.4080 261° West 143 165 200  Level FlightAware ADS-B

Login

Don't have an account? Register now (free) for customized features, flight alerts, and more!